createdAt,value
2022-10-14T00:02:29.382Z,88.38
2022-10-14T00:05:31.450Z,89.04
2022-10-14T00:08:33.551Z,87.90
2022-10-14T00:11:37.486Z,89.30
2022-10-14T00:14:40.208Z,89.51
2022-10-14T00:17:41.975Z,89.71
2022-10-14T00:20:43.703Z,91.24
2022-10-14T00:23:46.908Z,89.62
2022-10-14T00:26:51.302Z,89.60
2022-10-14T00:29:53.582Z,89.22
2022-10-14T00:32:55.786Z,89.71
2022-10-14T00:35:59.634Z,89.77
2022-10-14T00:39:05.898Z,90.06
2022-10-14T00:42:14.274Z,90.29
2022-10-14T00:45:21.372Z,89.78
2022-10-14T00:48:23.884Z,91.05
2022-10-14T00:51:26.431Z,91.50
2022-10-14T00:54:32.656Z,90.23
2022-10-14T00:57:36.026Z,90.44
2022-10-14T01:00:39.338Z,90.65
2022-10-14T01:03:42.860Z,90.04
2022-10-14T01:07:06.020Z,89.39
2022-10-14T01:10:25.969Z,90.07
2022-10-14T01:13:41.269Z,89.64
2022-10-14T01:16:59.514Z,90.64
2022-10-14T01:20:26.614Z,91.01
2022-10-14T01:24:17.032Z,90.67
2022-10-14T01:27:25.875Z,90.88
2022-10-14T01:30:34.448Z,91.48
2022-10-14T01:33:40.070Z,90.87
2022-10-14T01:37:04.868Z,90.85
2022-10-14T01:40:16.342Z,91.05
2022-10-14T01:43:19.500Z,90.65
2022-10-14T01:46:23.604Z,90.14
2022-10-14T01:49:37.033Z,90.64
2022-10-14T01:52:43.371Z,89.44
2022-10-14T01:55:47.513Z,90.09
2022-10-14T01:58:51.000Z,90.57
2022-10-14T02:01:53.489Z,91.89
2022-10-14T02:04:55.501Z,91.21
2022-10-14T02:08:03.647Z,90.33
2022-10-14T02:11:17.145Z,89.81
2022-10-14T02:14:47.386Z,89.35
2022-10-14T02:17:54.028Z,89.48
2022-10-14T02:21:07.613Z,90.44
2022-10-14T02:24:31.622Z,92.14
2022-10-14T02:27:34.526Z,90.47
2022-10-14T02:30:41.101Z,90.75
2022-10-14T02:33:46.590Z,90.25
2022-10-14T02:36:49.107Z,90.21
2022-10-14T02:40:03.359Z,90.05
2022-10-14T02:43:10.213Z,89.93
2022-10-14T02:46:12.643Z,90.14
2022-10-14T02:49:16.024Z,89.46
2022-10-14T02:52:19.869Z,88.79
2022-10-14T02:55:22.659Z,89.14
2022-10-14T02:58:25.316Z,88.93
2022-10-14T03:01:27.541Z,89.65
2022-10-14T03:04:29.928Z,89.84
2022-10-14T03:07:32.023Z,89.40
2022-10-14T03:10:38.251Z,89.20
2022-10-14T03:13:42.768Z,89.78
2022-10-14T03:16:48.035Z,89.33
2022-10-14T03:19:55.932Z,89.25
2022-10-14T03:23:00.109Z,89.73
2022-10-14T03:26:02.647Z,89.04
2022-10-14T03:29:10.181Z,88.64
2022-10-14T03:32:31.017Z,88.42
2022-10-14T03:35:52.999Z,88.87
2022-10-14T03:39:03.742Z,88.14
2022-10-14T03:42:26.097Z,89.68
2022-10-14T03:45:28.642Z,90.29
2022-10-14T03:48:33.103Z,90.02
2022-10-14T03:51:35.417Z,91.40
2022-10-14T03:54:48.630Z,90.06
2022-10-14T03:57:52.671Z,90.24
2022-10-14T04:00:55.429Z,90.93
2022-10-14T04:04:17.592Z,89.86
2022-10-14T04:07:21.096Z,89.60
2022-10-14T04:10:28.642Z,90.62
2022-10-14T04:13:31.461Z,90.80
2022-10-14T04:16:34.069Z,91.12
2022-10-14T04:19:45.553Z,91.54
2022-10-14T04:22:50.755Z,90.57
2022-10-14T04:25:54.154Z,90.54
2022-10-14T04:29:00.319Z,90.27
2022-10-14T04:32:10.382Z,89.56
2022-10-14T04:35:13.441Z,90.16
2022-10-14T04:38:19.815Z,91.40
2022-10-14T04:41:28.812Z,91.80
2022-10-14T04:44:34.642Z,91.23
2022-10-14T04:47:38.134Z,90.01
2022-10-14T04:50:42.026Z,90.21
2022-10-14T04:54:16.547Z,91.50
2022-10-14T04:57:24.202Z,92.39
2022-10-14T05:00:26.624Z,91.07
2022-10-14T05:03:34.149Z,91.30
2022-10-14T05:06:37.849Z,90.76
2022-10-14T05:09:45.129Z,89.44
2022-10-14T05:13:26.741Z,90.89
2022-10-14T05:17:21.642Z,91.03
2022-10-14T05:20:26.155Z,91.09
2022-10-14T05:23:31.363Z,91.17
2022-10-14T05:26:34.887Z,92.00
2022-10-14T05:29:41.273Z,90.38
2022-10-14T05:32:44.314Z,90.03
2022-10-14T05:35:58.487Z,90.35
2022-10-14T05:39:03.345Z,90.93
2022-10-14T05:42:10.250Z,91.16
2022-10-14T05:45:12.337Z,91.31
2022-10-14T05:48:21.023Z,91.63
2022-10-14T05:51:24.617Z,90.68
2022-10-14T05:54:33.154Z,90.17
2022-10-14T05:57:37.082Z,92.17
2022-10-14T06:00:40.676Z,91.42
2022-10-14T06:03:51.653Z,91.08
2022-10-14T06:06:54.045Z,92.05
2022-10-14T06:09:56.325Z,91.91
2022-10-14T06:12:58.208Z,92.49
2022-10-14T06:16:09.199Z,92.83
2022-10-14T06:19:12.037Z,92.25
2022-10-14T06:22:16.151Z,91.37
2022-10-14T06:25:18.786Z,91.74
2022-10-14T06:28:21.463Z,91.43
2022-10-14T06:31:24.457Z,91.05
2022-10-14T06:34:28.822Z,91.79
2022-10-14T06:37:30.785Z,90.63
2022-10-14T06:40:33.823Z,91.49
2022-10-14T06:43:35.980Z,91.27
2022-10-14T06:46:38.215Z,91.69
2022-10-14T06:49:40.398Z,91.19
2022-10-14T06:52:46.064Z,90.13
2022-10-14T06:56:06.348Z,89.76
2022-10-14T06:59:08.831Z,88.48
2022-10-14T07:02:11.692Z,88.07
2022-10-14T07:05:13.732Z,88.10
2022-10-14T07:08:20.632Z,89.13
2022-10-14T07:11:23.112Z,88.24
2022-10-14T07:14:29.735Z,88.83
2022-10-14T07:17:31.945Z,89.17
2022-10-14T07:20:36.469Z,88.57
2022-10-14T07:23:56.016Z,88.08
2022-10-14T07:27:00.496Z,88.25
2022-10-14T07:30:02.992Z,87.96
2022-10-14T07:33:05.783Z,87.07
2022-10-14T07:36:11.660Z,85.68
2022-10-14T07:39:18.480Z,85.79
2022-10-14T07:45:36.809Z,84.72
2022-10-14T07:48:52.592Z,85.28
2022-10-14T07:52:00.576Z,86.06
2022-10-14T07:55:06.340Z,88.18
2022-10-14T07:58:11.203Z,90.98
2022-10-14T08:01:15.769Z,90.88
2022-10-14T08:04:24.024Z,91.06
2022-10-14T08:07:29.981Z,92.03
2022-10-14T08:10:32.346Z,90.81
2022-10-14T08:13:37.886Z,90.95
2022-10-14T08:16:42.338Z,89.53
2022-10-14T08:19:49.825Z,88.39
2022-10-14T08:22:51.761Z,90.71
2022-10-14T08:25:56.637Z,87.83
2022-10-14T08:29:04.275Z,87.47
2022-10-14T08:32:06.174Z,87.70
2022-10-14T08:35:08.776Z,86.81
2022-10-14T08:38:13.633Z,87.78
2022-10-14T08:41:44.513Z,87.48
2022-10-14T08:44:52.448Z,87.66
2022-10-14T08:47:57.218Z,88.56
2022-10-14T08:51:12.863Z,88.28
2022-10-14T08:54:31.056Z,89.52
2022-10-14T08:57:40.646Z,90.06
2022-10-14T09:00:43.114Z,89.05
2022-10-14T09:03:45.718Z,88.35
2022-10-14T09:06:49.583Z,86.58
2022-10-14T09:09:59.009Z,84.96
2022-10-14T09:13:17.331Z,84.42
2022-10-14T09:16:22.074Z,84.19
2022-10-14T09:19:31.874Z,85.02
2022-10-14T09:22:35.040Z,84.75
2022-10-14T09:25:37.892Z,84.45
2022-10-14T09:28:43.971Z,84.56
2022-10-14T09:31:45.702Z,85.08
2022-10-14T09:34:52.448Z,85.78
2022-10-14T09:37:54.293Z,84.48
2022-10-14T09:41:00.136Z,84.71
2022-10-14T09:44:22.067Z,87.03
2022-10-14T09:47:24.399Z,87.92
2022-10-14T09:50:29.328Z,87.84
2022-10-14T09:53:34.672Z,89.02
2022-10-14T09:56:42.006Z,88.90
2022-10-14T09:59:54.090Z,87.99
2022-10-14T10:02:56.112Z,89.23
2022-10-14T10:06:06.800Z,88.52
2022-10-14T10:09:18.787Z,89.21
2022-10-14T10:12:34.963Z,88.86
2022-10-14T10:15:36.960Z,89.85
2022-10-14T10:18:38.820Z,90.55
2022-10-14T10:21:40.616Z,89.40
2022-10-14T10:24:42.788Z,89.50
2022-10-14T10:27:46.267Z,87.66
2022-10-14T10:31:00.071Z,88.35
2022-10-14T10:34:31.073Z,89.34
2022-10-14T10:37:48.969Z,91.05
2022-10-14T10:41:03.451Z,91.93
2022-10-14T10:44:05.428Z,91.54
2022-10-14T10:47:28.691Z,91.81
2022-10-14T10:50:42.062Z,92.32
2022-10-14T10:54:07.275Z,93.17
2022-10-14T10:58:07.486Z,94.30
2022-10-14T11:01:16.713Z,91.53
2022-10-14T11:04:24.733Z,91.99
2022-10-14T11:07:49.723Z,90.58
2022-10-14T11:11:36.487Z,90.07
2022-10-14T11:14:47.788Z,89.49
2022-10-14T11:17:58.394Z,88.59
2022-10-14T11:21:16.177Z,88.75
2022-10-14T11:24:27.214Z,88.70
2022-10-14T11:27:32.246Z,87.46
2022-10-14T11:30:52.051Z,87.88
2022-10-14T11:34:12.611Z,86.71
2022-10-14T11:37:42.410Z,86.42
2022-10-14T11:41:06.348Z,85.16
2022-10-14T11:44:16.388Z,85.21
2022-10-14T11:47:32.171Z,85.86
2022-10-14T11:50:43.007Z,86.22
2022-10-14T11:54:00.327Z,85.19
2022-10-14T11:57:11.555Z,85.35
2022-10-14T12:00:15.918Z,84.52
2022-10-14T12:03:26.674Z,82.70
2022-10-14T12:06:35.256Z,84.54
2022-10-14T12:09:39.883Z,83.86
2022-10-14T12:12:43.138Z,83.65
2022-10-14T12:15:50.268Z,84.49
2022-10-14T12:18:58.363Z,84.43
2022-10-14T12:22:25.022Z,85.99
2022-10-14T12:25:30.942Z,86.66
2022-10-14T12:28:34.645Z,85.79
2022-10-14T12:31:38.637Z,85.94
2022-10-14T12:34:41.792Z,85.46
2022-10-14T12:37:54.465Z,85.92
2022-10-14T12:41:39.603Z,86.30
2022-10-14T12:44:56.303Z,85.48
2022-10-14T12:48:15.836Z,85.24
2022-10-14T12:51:20.775Z,84.71
2022-10-14T12:54:23.696Z,84.98
2022-10-14T12:57:26.708Z,85.89
2022-10-14T13:00:32.597Z,85.95
2022-10-14T13:03:45.870Z,85.87
2022-10-14T13:07:38.977Z,86.41
2022-10-14T13:10:44.986Z,86.00
2022-10-14T13:13:50.473Z,86.75
2022-10-14T13:16:52.275Z,87.71
2022-10-14T13:19:54.191Z,86.60
2022-10-14T13:23:33.988Z,88.50
2022-10-14T13:26:54.353Z,87.11
2022-10-14T13:30:11.042Z,85.09
2022-10-14T13:33:25.186Z,85.62
2022-10-14T13:36:37.099Z,86.10
2022-10-14T13:39:39.228Z,86.12
2022-10-14T13:42:41.445Z,85.85
2022-10-14T13:45:56.497Z,86.33
2022-10-14T13:49:03.669Z,86.94
2022-10-14T13:52:08.131Z,87.51
2022-10-14T13:55:16.291Z,88.89
2022-10-14T13:58:24.008Z,88.51
2022-10-14T14:01:37.314Z,86.77
2022-10-14T14:04:39.303Z,88.17
2022-10-14T14:11:22.102Z,88.38
2022-10-14T14:14:38.772Z,88.33
2022-10-14T14:17:43.694Z,88.34
2022-10-14T14:20:58.720Z,88.42
2022-10-14T14:24:01.499Z,89.33
2022-10-14T14:27:03.959Z,89.44
2022-10-14T14:30:21.063Z,90.57
2022-10-14T14:33:28.121Z,89.42
2022-10-14T14:36:50.828Z,88.63
2022-10-14T14:40:07.018Z,88.34
2022-10-14T14:43:09.745Z,87.99
2022-10-14T14:46:19.291Z,89.27
2022-10-14T14:49:28.739Z,88.51
2022-10-14T14:52:34.489Z,87.17
2022-10-14T14:55:53.989Z,87.92
2022-10-14T14:58:58.384Z,89.57
2022-10-14T15:02:01.881Z,88.75
2022-10-14T15:05:09.001Z,87.74
2022-10-14T15:08:32.561Z,88.02
2022-10-14T15:11:34.545Z,87.81
2022-10-14T15:14:46.517Z,88.28
2022-10-14T15:17:48.580Z,88.34
2022-10-14T15:20:51.169Z,88.65
2022-10-14T15:23:53.635Z,89.13
2022-10-14T15:26:55.708Z,89.26
2022-10-14T15:30:20.302Z,89.46
2022-10-14T15:33:26.886Z,88.25
2022-10-14T15:36:31.416Z,88.06
2022-10-14T15:39:33.623Z,89.01
2022-10-14T15:42:35.703Z,88.89
2022-10-14T15:45:37.800Z,89.01
2022-10-14T15:48:42.188Z,89.80
2022-10-14T15:51:44.682Z,90.30
2022-10-14T15:54:49.402Z,89.84
2022-10-14T15:57:52.733Z,90.22
2022-10-14T16:00:55.216Z,89.78
2022-10-14T16:03:58.309Z,89.43
2022-10-14T16:07:00.614Z,89.92
2022-10-14T16:10:03.204Z,89.77
2022-10-14T16:13:05.447Z,89.29
2022-10-14T16:16:10.469Z,89.80
2022-10-14T16:19:12.937Z,90.27
2022-10-14T16:22:15.294Z,90.02
2022-10-14T16:25:30.251Z,90.12
2022-10-14T16:28:32.500Z,91.01
2022-10-14T16:31:34.539Z,90.57
2022-10-14T16:34:36.797Z,90.60
2022-10-14T16:37:39.404Z,90.61
2022-10-14T16:40:42.761Z,89.46
2022-10-14T16:43:45.226Z,89.53
2022-10-14T16:47:06.427Z,89.69
2022-10-14T16:50:09.531Z,90.56
2022-10-14T16:53:30.291Z,90.34
2022-10-14T16:56:51.423Z,90.27
2022-10-14T16:59:53.324Z,90.35
2022-10-14T17:02:55.515Z,90.01
2022-10-14T17:05:58.932Z,90.41
2022-10-14T17:09:00.702Z,89.70
2022-10-14T17:12:06.945Z,89.59
2022-10-14T17:15:12.812Z,90.84
2022-10-14T17:18:17.789Z,90.59
2022-10-14T17:21:20.057Z,91.25
2022-10-14T17:24:22.441Z,90.89
2022-10-14T17:27:24.961Z,91.49
2022-10-14T17:30:27.339Z,91.55
2022-10-14T17:33:29.309Z,91.00
2022-10-14T17:36:31.526Z,90.48
2022-10-14T17:39:33.863Z,90.59
2022-10-14T17:42:35.943Z,91.06
2022-10-14T17:45:38.424Z,89.80
2022-10-14T17:48:42.694Z,90.75
2022-10-14T17:51:48.235Z,90.67
2022-10-14T17:54:50.515Z,90.83
2022-10-14T17:57:52.659Z,89.63
2022-10-14T18:00:54.896Z,89.98
2022-10-14T18:03:59.421Z,90.05
2022-10-14T18:07:01.714Z,91.11
2022-10-14T18:10:04.966Z,90.61
2022-10-14T18:13:08.666Z,90.39
2022-10-14T18:16:13.755Z,90.74
2022-10-14T18:19:18.958Z,91.13
2022-10-14T18:22:23.747Z,90.06
2022-10-14T18:25:25.827Z,90.76
2022-10-14T18:28:27.905Z,91.92
2022-10-14T18:31:31.779Z,90.84
2022-10-14T18:34:34.172Z,90.84
2022-10-14T18:37:36.139Z,90.62
2022-10-14T18:40:38.408Z,91.14
2022-10-14T18:43:40.848Z,90.54
2022-10-14T18:46:42.767Z,90.12
2022-10-14T18:49:44.860Z,90.40
2022-10-14T18:52:47.961Z,90.52
2022-10-14T18:55:50.692Z,90.73
2022-10-14T18:58:58.266Z,90.68
2022-10-14T19:02:00.558Z,90.19
2022-10-14T19:05:02.807Z,90.65
2022-10-14T19:08:05.190Z,90.89
2022-10-14T19:11:09.817Z,90.12
2022-10-14T19:14:13.474Z,88.87
2022-10-14T19:17:15.624Z,90.43
2022-10-14T19:20:18.416Z,91.45
2022-10-14T19:23:27.617Z,90.49
2022-10-14T19:26:35.127Z,90.49
2022-10-14T19:29:37.380Z,88.81
2022-10-14T19:32:39.561Z,89.09
2022-10-14T19:35:41.500Z,89.81
2022-10-14T19:38:51.186Z,89.88
2022-10-14T19:41:53.696Z,90.17
2022-10-14T19:44:55.836Z,90.89
2022-10-14T19:47:58.394Z,90.58
2022-10-14T19:51:06.119Z,89.75
2022-10-14T19:54:12.925Z,90.28
2022-10-14T19:57:17.183Z,91.98
2022-10-14T20:00:19.824Z,91.54
2022-10-14T20:03:21.910Z,91.52
2022-10-14T20:06:26.026Z,90.28
2022-10-14T20:09:29.081Z,88.98
2022-10-14T20:12:31.214Z,90.59
2022-10-14T20:15:33.058Z,91.12
2022-10-14T20:18:38.252Z,91.49
2022-10-14T20:21:40.657Z,92.81
2022-10-14T20:24:43.722Z,90.70
2022-10-14T20:27:45.631Z,91.10
2022-10-14T20:30:49.162Z,90.19
2022-10-14T20:33:52.056Z,90.98
2022-10-14T20:36:54.169Z,90.26
2022-10-14T20:39:56.552Z,89.60
2022-10-14T20:42:58.523Z,89.39
2022-10-14T20:46:00.569Z,89.60
2022-10-14T20:49:02.622Z,91.21
2022-10-14T20:52:05.195Z,90.21
2022-10-14T20:55:07.402Z,90.67
2022-10-14T20:58:09.335Z,90.29
2022-10-14T21:01:12.806Z,91.00
2022-10-14T21:04:14.943Z,90.67
2022-10-14T21:07:18.113Z,90.19
2022-10-14T21:10:20.339Z,89.99
2022-10-14T21:13:22.193Z,90.72
2022-10-14T21:16:32.775Z,92.64
2022-10-14T21:19:35.141Z,91.62
2022-10-14T21:22:37.111Z,92.20
2022-10-14T21:25:39.431Z,90.66
2022-10-14T21:28:41.701Z,91.34
2022-10-14T21:31:44.614Z,91.65
2022-10-14T21:34:46.553Z,92.73
2022-10-14T21:37:48.255Z,91.94
2022-10-14T21:40:50.192Z,91.70
2022-10-14T21:43:52.163Z,91.94
2022-10-14T21:46:54.366Z,92.39
2022-10-14T21:49:56.345Z,92.44
2022-10-14T21:52:58.291Z,91.90
2022-10-14T21:56:00.471Z,92.07
2022-10-14T21:59:02.771Z,91.16
2022-10-14T22:02:04.788Z,91.50
2022-10-14T22:05:06.919Z,92.15
2022-10-14T22:08:08.718Z,92.86
2022-10-14T22:11:35.221Z,94.10
2022-10-14T22:14:37.295Z,95.21
2022-10-14T22:17:39.280Z,94.29
2022-10-14T22:20:41.282Z,93.25
2022-10-14T22:23:43.966Z,93.51
2022-10-14T22:26:45.789Z,93.13
2022-10-14T22:29:47.784Z,91.54
2022-10-14T22:32:49.884Z,92.13
2022-10-14T22:35:51.818Z,92.46
2022-10-14T22:38:54.650Z,91.42
2022-10-14T22:41:56.475Z,91.51
2022-10-14T22:44:58.475Z,91.99
2022-10-14T22:48:00.427Z,91.71
2022-10-14T22:51:10.106Z,91.04
2022-10-14T22:54:12.286Z,91.36
2022-10-14T22:57:14.015Z,92.06
2022-10-14T23:00:16.476Z,91.56
2022-10-14T23:03:18.884Z,92.53
2022-10-14T23:06:20.704Z,93.19
2022-10-14T23:09:22.954Z,95.11
2022-10-14T23:12:25.455Z,93.52
2022-10-14T23:15:27.818Z,94.74
2022-10-14T23:18:31.832Z,93.32
2022-10-14T23:21:36.069Z,91.81
2022-10-14T23:24:37.948Z,91.70
2022-10-14T23:27:39.825Z,92.18
2022-10-14T23:30:41.941Z,92.46
2022-10-14T23:33:44.188Z,91.46
2022-10-14T23:36:46.062Z,91.18
2022-10-14T23:39:48.422Z,91.39
2022-10-14T23:42:50.210Z,91.97
2022-10-14T23:49:07.056Z,91.16
2022-10-14T23:52:16.435Z,91.82
2022-10-14T23:55:18.268Z,91.36
2022-10-14T23:58:20.160Z,91.45
